aviador You're here:

KCSM Decoded Metar

CLINTON in OK, USA
Report Time2018-01-18 12:53:00
UTC Time2018-01-18 13:58:59
Flight Rules vfr VFR
Wind200° at 09 kt
W.Decomp.*RWY 17: 8.3 kt HW 3.4 kt RCW
W.Rank200° ranks 5
Current wind is below 200° avg. (12.8)
Visibility9999 m
Phenomena:N/A
Clouds:N/A
Expected CloudBase > 3,200 ft AGL from Temp-Dew spread
CeilingNone
Temp-9°C (ISA -20)
Dew Point-17°C (53% RH)
AAT-15.7°C
QNH1027 hPa
Density Alt-1,024 ft
Elevation1,929 ft
Report Wrong Elevation
Raw Report
KCSM 181253Z AUTO 20009KT 10SM CLR M09/M17 A3034 RMK AO2 SLP296
T10941172=

Extra information for KCSM:More info

Metar Taf Metar & Taf Last 4 Metars F.Rules Stats Wind Profile Meteogram Temp Stats Airport Information Weather charts Add Link Nearby VenuesMetar ALERT Operation Metar Decoded Social comments

AIRNAV info for KCSM